CO41 weather

Denver Police Department-District 3 Heliport
Denver, Colorado, United States

Public forecast

Using degrees Fahrenheit for public forecast. Weather courtesy of forecast.io.

METAR (pilot weather report)

Closest report is Centennial Airport, 8.7 nm (16.1 km) SE. Retrieved 2019/04/25 10:00 UTC (3 minutes ago):

KAPA 251000Z 02012KT 10SM OVC016 07/03 A3017 RMK AO2 T00720028

TAF (pilot weather forecast)

Closest forecast is Centennial Airport, 8.7 nm (16.1 km) SE. Retrieved 2019/04/25 06:34 UTC (3 hours ago):

TAF KAPA 250532Z 2506/2606 20008KT P6SM SCT120 FM250700 36014G24KT P6SM VCSH SCT080 BKN110 FM250900 01012G22KT P6SM SCT030 BKN090 FM251000 03012KT P6SM VCSH SCT007 OVC015 FM251400 34010KT P6SM SCT015 BKN045 FM251800 03008KT P6SM SCT050 FM260000 08007KT P6SM FEW050 SCT220 FM260400 16012KT P6SM SCT220